Time;durP1;ratioP1;P1;durP2;ratioP2;P2;SDS_P1;SDS_P2;PMS_P1;PMS_P2;Temp;Humidity;BMP_temperature;BMP_pressure;BME280_temperature;BME280_humidity;BME280_pressure;Samples;Min_cycle;Max_cycle;Signal;HPM_P1;HPM_P2
2022/05/07 00:01:13;;;;;;;;;;;;;;;16.82;100.00;98427.84;5077597;28;19988;-61
2022/05/07 00:03:41;;;;;;;;;;;;;;;16.79;100.00;98426.53;5077238;28;20338;-60
2022/05/07 00:06:07;;;;;;;;;;;;;;;16.86;100.00;98420.78;5080071;28;19929;-60
2022/05/07 00:08:34;;;;;;;;;;;;;;;16.84;100.00;98429.13;5080726;28;19988;-61
2022/05/07 00:11:00;;;;;;;;;;;;;;;16.79;100.00;98425.72;5078845;28;19928;-61
2022/05/07 00:13:27;;;;;;;;;;;;;;;16.71;100.00;98425.25;5078248;27;19925;-61
2022/05/07 00:18:37;;;;;;;;;;;;;;;16.82;100.00;98415.16;5081260;28;19950;-61
2022/05/07 00:21:05;;;;;;;;;;;;;;;16.76;100.00;98410.13;5078445;28;19932;-60
2022/05/07 00:23:32;;;;;;;;;;;;;;;16.48;100.00;98411.78;5077479;28;19925;-60
2022/05/07 00:25:59;;;;;;;;;;;;;;;16.39;100.00;98417.03;5078902;28;19925;-62
2022/05/07 00:28:25;;;;;;;;;;;;;;;16.20;100.00;98408.09;5079821;28;20480;-60
2022/05/07 00:30:52;;;;;;;;;;;;;;;16.39;100.00;98410.81;5079844;28;19935;-61
2022/05/07 00:33:18;;;;;;;;;;;;;;;16.41;100.00;98404.06;5077062;28;19985;-60
2022/05/07 00:35:45;;;;;;;;;;;;;;;16.56;100.00;98411.97;5077349;28;19984;-62
2022/05/07 00:38:12;;;;;;;;;;;;;;;16.65;100.00;98407.53;5080370;28;19935;-61
2022/05/07 00:40:39;;;;;;;;;;;;;;;16.66;100.00;98411.06;5080491;28;20005;-60
2022/05/07 00:43:05;;;;;;;;;;;;;;;16.77;100.00;98401.75;5078575;27;19924;-63
2022/05/07 00:45:31;;;;;;;;;;;;;;;16.80;100.00;98409.25;5076795;28;19925;-62
2022/05/07 00:47:58;;;;;;;;;;;;;;;16.88;100.00;98394.28;5078488;28;19963;-61
2022/05/07 00:53:09;;;;;;;;;;;;;;;16.65;100.00;98387.84;5077004;28;19928;-62
2022/05/07 00:55:37;;;;;;;;;;;;;;;16.80;100.00;98384.16;5076744;28;19985;-61
2022/05/07 00:58:03;;;;;;;;;;;;;;;16.63;100.00;98395.44;5061223;28;19931;-61
2022/05/07 01:00:30;;;;;;;;;;;;;;;16.40;100.00;98397.03;5080108;28;19925;-61
2022/05/07 01:02:57;;;;;;;;;;;;;;;16.27;100.00;98391.56;5078379;28;19925;-61
2022/05/07 01:05:23;;;;;;;;;;;;;;;16.30;100.00;98396.38;5076543;28;19942;-62
2022/05/07 01:07:50;;;;;;;;;;;;;;;16.14;100.00;98396.56;5076767;28;19924;-62
2022/05/07 01:10:16;;;;;;;;;;;;;;;16.18;100.00;98389.50;5079864;28;19930;-61
2022/05/07 01:12:45;;;;;;;;;;;;;;;16.23;100.00;98380.56;5080526;27;19931;-61
2022/05/07 01:15:11;;;;;;;;;;;;;;;16.17;100.00;98387.09;5076322;28;19929;-61
2022/05/07 01:17:38;;;;;;;;;;;;;;;16.03;100.00;98388.88;5076348;28;19988;-61
2022/05/07 01:20:09;;;;;;;;;;;;;;;16.11;100.00;98386.34;5078751;28;19925;-62
2022/05/07 01:22:36;;;;;;;;;;;;;;;16.24;100.00;98382.19;5079776;28;19924;-61
2022/05/07 01:25:03;;;;;;;;;;;;;;;16.35;100.00;98380.94;5077458;28;19925;-60
2022/05/07 01:27:30;;;;;;;;;;;;;;;16.24;100.00;98384.06;5076122;28;19952;-62
2022/05/07 01:29:56;;;;;;;;;;;;;;;16.43;100.00;98366.81;5077488;28;19946;-61
2022/05/07 01:32:23;;;;;;;;;;;;;;;16.56;100.00;98370.72;5079542;28;19920;-61
2022/05/07 01:34:51;;;;;;;;;;;;;;;16.50;100.00;98375.34;5079126;28;19992;-61
2022/05/07 01:37:18;;;;;;;;;;;;;;;16.56;100.00;98362.63;5058378;28;19955;-61
2022/05/07 01:39:46;;;;;;;;;;;;;;;16.68;100.00;98366.50;5076027;28;19931;-61
2022/05/07 01:42:12;;;;;;;;;;;;;;;16.79;100.00;98360.97;5071791;27;19925;-61
2022/05/07 01:44:39;;;;;;;;;;;;;;;16.87;100.00;98355.72;5079479;28;19973;-60
2022/05/07 01:49:49;;;;;;;;;;;;;;;16.83;100.00;98367.41;5076088;28;19980;-61
2022/05/07 01:52:16;;;;;;;;;;;;;;;16.70;100.00;98352.75;5079277;28;19930;-60
2022/05/07 01:54:43;;;;;;;;;;;;;;;16.47;100.00;98358.94;5079277;28;19934;-60
2022/05/07 01:57:11;;;;;;;;;;;;;;;16.52;100.00;98361.59;5076121;28;19925;-61
2022/05/07 01:59:37;;;;;;;;;;;;;;;16.65;100.00;98363.59;5075822;28;19925;-61
2022/05/07 02:02:03;;;;;;;;;;;;;;;16.74;100.00;98359.16;5077748;28;19921;-61
2022/05/07 02:04:30;;;;;;;;;;;;;;;16.83;100.00;98356.63;5079178;28;20017;-61
2022/05/07 02:06:56;;;;;;;;;;;;;;;16.88;100.00;98360.03;5077830;28;19931;-61
2022/05/07 02:09:22;;;;;;;;;;;;;;;16.90;100.00;98349.75;5075615;28;19995;-65
2022/05/07 02:11:49;;;;;;;;;;;;;;;16.93;100.00;98351.84;5076835;27;19991;-62
2022/05/07 02:14:16;;;;;;;;;;;;;;;16.93;100.00;98356.47;5079000;28;19931;-60
2022/05/07 02:16:43;;;;;;;;;;;;;;;16.98;100.00;98353.69;5079178;28;19920;-60
2022/05/07 02:19:09;;;;;;;;;;;;;;;16.96;100.00;98361.28;5075937;28;19984;-62
2022/05/07 02:21:35;;;;;;;;;;;;;;;16.90;100.00;98352.44;5075573;28;19925;-60
2022/05/07 02:24:02;;;;;;;;;;;;;;;16.79;100.00;98355.59;5077684;28;20023;-62
2022/05/07 02:26:28;;;;;;;;;;;;;;;16.74;100.00;98364.56;5078970;28;19920;-61
2022/05/07 02:28:55;;;;;;;;;;;;;;;16.71;100.00;98360.53;5077790;28;19952;-64
2022/05/07 02:31:22;;;;;;;;;;;;;;;16.62;100.00;98358.78;5075408;28;19935;-61
2022/05/07 02:33:48;;;;;;;;;;;;;;;16.65;100.00;98361.69;5075527;28;20432;-62
2022/05/07 02:36:15;;;;;;;;;;;;;;;16.39;100.00;98363.13;5078686;28;20019;-61
2022/05/07 02:38:41;;;;;;;;;;;;;;;16.27;100.00;98356.53;5078726;28;19925;-61
2022/05/07 02:43:51;;;;;;;;;;;;;;;16.56;100.00;98358.06;5076702;27;19944;-61
2022/05/07 02:46:18;;;;;;;;;;;;;;;16.67;100.00;98358.72;5078574;28;19931;-61
2022/05/07 02:48:46;;;;;;;;;;;;;;;16.71;100.00;98349.75;5078675;28;20582;-60
2022/05/07 02:51:12;;;;;;;;;;;;;;;16.71;100.00;98351.66;5067737;28;19942;-60
2022/05/07 02:53:39;;;;;;;;;;;;;;;16.75;100.00;98352.66;5078554;28;19920;-61
2022/05/07 02:56:05;;;;;;;;;;;;;;;16.78;100.00;98353.97;5081096;28;19925;-62
2022/05/07 02:58:32;;;;;;;;;;;;;;;16.78;100.00;98348.56;5081976;28;20000;-60
2022/05/07 03:00:58;;;;;;;;;;;;;;;16.78;100.00;98354.78;5080225;28;19920;-60
2022/05/07 03:03:25;;;;;;;;;;;;;;;16.79;100.00;98348.31;5078311;27;19931;-61
2022/05/07 03:05:55;;;;;;;;;;;;;;;16.80;100.00;98344.50;5079022;28;19946;-60
2022/05/07 03:08:22;;;;;;;;;;;;;;;16.76;100.00;98356.16;5081606;28;19929;-61
2022/05/07 03:10:48;;;;;;;;;;;;;;;16.78;100.00;98346.69;5081619;28;19925;-61
2022/05/07 03:13:16;;;;;;;;;;;;;;;16.78;100.00;98349.38;5060999;27;21323;-61
2022/05/07 03:15:43;;;;;;;;;;;;;;;16.76;100.00;98356.97;5078211;28;19920;-60
2022/05/07 03:18:09;;;;;;;;;;;;;;;16.76;100.00;98356.16;5081139;28;19992;-61
2022/05/07 03:20:37;;;;;;;;;;;;;;;16.78;100.00;98348.56;5081504;28;20423;-61
2022/05/07 03:23:04;;;;;;;;;;;;;;;16.73;100.00;98352.16;5079276;28;19920;-61
2022/05/07 03:25:31;;;;;;;;;;;;;;;16.74;100.00;98351.09;5078160;28;19925;-60
2022/05/07 03:27:57;;;;;;;;;;;;;;;16.77;100.00;98347.81;5079398;28;20009;-62
2022/05/07 03:30:24;;;;;;;;;;;;;;;16.77;100.00;98355.09;5081287;28;19987;-61
2022/05/07 03:32:50;;;;;;;;;;;;;;;16.76;100.00;98356.16;5081107;28;19920;-62
2022/05/07 03:35:16;;;;;;;;;;;;;;;16.75;100.00;98352.66;5077937;28;19925;-61
2022/05/07 03:37:42;;;;;;;;;;;;;;;16.71;100.00;98354.38;5077769;28;20011;-61
2022/05/07 03:40:11;;;;;;;;;;;;;;;16.47;100.00;98348.16;5080834;28;19921;-61
2022/05/07 03:42:37;;;;;;;;;;;;;;;16.00;100.00;98357.91;5082265;27;20536;-61
2022/05/07 03:45:04;;;;;;;;;;;;;;;15.92;100.00;98358.56;5079222;28;19920;-60
2022/05/07 03:47:30;;;;;;;;;;;;;;;15.98;100.00;98349.31;5077901;28;19925;-60
2022/05/07 03:49:56;;;;;;;;;;;;;;;15.89;100.00;98353.75;5079193;28;19993;-61
2022/05/07 03:55:07;;;;;;;;;;;;;;;16.15;100.00;98357.72;5078581;28;20015;-61
2022/05/07 03:57:35;;;;;;;;;;;;;;;16.29;100.00;98365.94;5077638;28;19925;-61
2022/05/07 04:00:02;;;;;;;;;;;;;;;16.38;100.00;98350.72;5079560;28;19956;-60
2022/05/07 04:02:30;;;;;;;;;;;;;;;16.47;100.00;98356.25;5079157;27;19925;-60
2022/05/07 04:04:56;;;;;;;;;;;;;;;16.46;100.00;98357.38;5079171;28;19924;-61
2022/05/07 04:07:23;;;;;;;;;;;;;;;16.51;100.00;98354.59;5076811;28;19929;-62
2022/05/07 04:09:54;;;;;;;;;;;;;;;16.54;100.00;98351.31;5077576;28;20001;-60
2022/05/07 04:12:20;;;;;;;;;;;;;;;16.54;100.00;98352.16;5081686;27;19929;-62
2022/05/07 04:14:48;;;;;;;;;;;;;;;16.59;100.00;98356.66;5080720;28;19964;-61
2022/05/07 04:17:14;;;;;;;;;;;;;;;16.44;100.00;98354.16;5069142;28;19920;-61
2022/05/07 04:19:40;;;;;;;;;;;;;;;16.28;100.00;98366.22;5077049;28;19925;-60
2022/05/07 04:22:07;;;;;;;;;;;;;;;16.14;100.00;98366.13;5079587;28;19932;-61
2022/05/07 04:24:34;;;;;;;;;;;;;;;15.87;100.00;98361.31;5080402;28;19944;-61
2022/05/07 04:27:00;;;;;;;;;;;;;;;15.73;100.00;98362.25;5078453;28;20456;-61
2022/05/07 04:29:26;;;;;;;;;;;;;;;15.46;100.00;98360.06;5076724;28;19935;-61
2022/05/07 04:31:54;;;;;;;;;;;;;;;15.41;100.00;98368.97;5077556;28;19952;-60
2022/05/07 04:34:22;;;;;;;;;;;;;;;15.40;100.00;98371.97;5080159;28;19925;-62
2022/05/07 04:36:48;;;;;;;;;;;;;;;15.17;100.00;98370.00;5079846;28;19925;-61
2022/05/07 04:39:14;;;;;;;;;;;;;;;15.16;100.00;98379.97;5076653;28;19932;-62
2022/05/07 04:41:41;;;;;;;;;;;;;;;15.03;100.00;98376.03;5076658;28;19932;-61
2022/05/07 04:44:07;;;;;;;;;;;;;;;15.11;100.00;98385.38;5080475;27;19932;-61
2022/05/07 04:46:33;;;;;;;;;;;;;;;15.29;100.00;98383.91;5079905;28;19920;-61
2022/05/07 04:49:01;;;;;;;;;;;;;;;15.07;100.00;98385.13;5078152;28;20015;-62
2022/05/07 04:51:27;;;;;;;;;;;;;;;15.00;100.00;98387.34;5076446;28;19980;-60
2022/05/07 04:53:53;;;;;;;;;;;;;;;15.03;100.00;98389.47;5077211;28;19928;-60
2022/05/07 04:56:22;;;;;;;;;;;;;;;15.44;100.00;98394.56;5079817;28;19929;-61
2022/05/07 04:58:48;;;;;;;;;;;;;;;15.34;100.00;98394.63;5079637;28;19932;-61
2022/05/07 05:01:14;;;;;;;;;;;;;;;15.13;100.00;98402.84;5076370;28;19979;-60
2022/05/07 05:03:41;;;;;;;;;;;;;;;15.04;100.00;98399.13;5076200;28;19925;-61
2022/05/07 05:06:08;;;;;;;;;;;;;;;14.88;100.00;98402.22;5079129;28;20956;-60
2022/05/07 05:08:35;;;;;;;;;;;;;;;15.16;100.00;98398.00;5079846;28;19924;-61
2022/05/07 05:11:01;;;;;;;;;;;;;;;15.30;100.00;98397.06;5077765;28;19924;-61
2022/05/07 05:13:27;;;;;;;;;;;;;;;15.18;100.00;98401.22;5077187;27;19924;-61
2022/05/07 05:15:54;;;;;;;;;;;;;;;15.18;100.00;98396.63;5076935;28;19931;-60
2022/05/07 05:18:20;;;;;;;;;;;;;;;15.43;100.00;98395.63;5079563;28;19935;-62
2022/05/07 05:20:46;;;;;;;;;;;;;;;15.24;100.00;98400.88;5079484;28;19930;-61
2022/05/07 05:23:14;;;;;;;;;;;;;;;15.34;100.00;98400.00;5067555;28;19931;-62
2022/05/07 05:25:43;;;;;;;;;;;;;;;15.39;100.00;98402.66;5075998;28;19931;-61
2022/05/07 05:28:11;;;;;;;;;;;;;;;15.18;100.00;98404.72;5078897;28;19934;-61
2022/05/07 05:30:38;;;;;;;;;;;;;;;14.83;100.00;98405.72;5079304;28;19927;-61
2022/05/07 05:33:04;;;;;;;;;;;;;;;14.80;100.00;98411.66;5076953;28;19984;-61
2022/05/07 05:35:30;;;;;;;;;;;;;;;14.64;100.00;98404.75;5075703;28;19925;-61
2022/05/07 05:37:57;;;;;;;;;;;;;;;14.79;100.00;98418.13;5076942;28;19932;-61
2022/05/07 05:40:24;;;;;;;;;;;;;;;14.90;100.00;98410.81;5079118;28;20451;-61
2022/05/07 05:42:51;;;;;;;;;;;;;;;14.99;100.00;98411.81;5079916;27;19991;-61
2022/05/07 05:45:17;;;;;;;;;;;;;;;15.03;100.00;98415.56;5075559;28;19924;-61
2022/05/07 05:47:43;;;;;;;;;;;;;;;15.04;100.00;98411.81;5075695;28;19963;-61
2022/05/07 05:50:10;;;;;;;;;;;;;;;14.99;100.00;98425.28;5078749;28;19925;-61
2022/05/07 05:52:36;;;;;;;;;;;;;;;15.17;100.00;98426.50;5061529;28;19987;-61
2022/05/07 05:55:03;;;;;;;;;;;;;;;15.25;100.00;98420.53;5077129;28;19931;-60
2022/05/07 05:57:31;;;;;;;;;;;;;;;15.38;100.00;98427.97;5075566;28;19925;-61
2022/05/07 05:59:57;;;;;;;;;;;;;;;15.30;100.00;98431.25;5059061;28;19996;-62
2022/05/07 06:02:23;;;;;;;;;;;;;;;15.25;100.00;98428.59;5078514;28;19927;-61
2022/05/07 06:04:49;;;;;;;;;;;;;;;15.30;100.00;98431.25;5078513;28;19925;-62
2022/05/07 06:07:16;;;;;;;;;;;;;;;15.23;100.00;98434.25;5075483;28;19996;-61
2022/05/07 06:09:42;;;;;;;;;;;;;;;15.03;100.00;98437.91;5075562;28;19963;-62
2022/05/07 06:12:09;;;;;;;;;;;;;;;15.22;100.00;98438.03;5079665;27;19932;-61
2022/05/07 06:14:37;;;;;;;;;;;;;;;15.33;100.00;98431.50;5079024;28;19925;-61
2022/05/07 06:17:03;;;;;;;;;;;;;;;15.20;100.00;98434.00;5076736;28;19995;-61
2022/05/07 06:19:30;;;;;;;;;;;;;;;15.21;100.00;98438.31;5075304;28;19925;-61
2022/05/07 06:21:57;;;;;;;;;;;;;;;15.29;100.00;98422.38;5076578;28;19960;-62
2022/05/07 06:29:53;;;;;;;;;;;;;;;15.24;100.00;98435.06;5079288;28;19947;-61
2022/05/07 06:32:19;;;;;;;;;;;;;;;15.23;100.00;98430.75;5082232;28;19936;-61
2022/05/07 06:34:45;;;;;;;;;;;;;;;15.13;100.00;98431.66;5082332;28;19925;-61
2022/05/07 06:37:12;;;;;;;;;;;;;;;14.92;100.00;98430.16;5078696;28;20704;-61
2022/05/07 06:39:39;;;;;;;;;;;;;;;14.77;100.00;98427.56;5078771;28;19921;-60
2022/05/07 06:42:05;;;;;;;;;;;;;;;14.66;100.00;98434.06;5082636;27;19989;-61
2022/05/07 06:44:32;;;;;;;;;;;;;;;14.63;100.00;98432.75;5082182;28;20011;-61
2022/05/07 06:46:59;;;;;;;;;;;;;;;14.60;100.00;98436.00;5080591;28;19967;-62
2022/05/07 06:49:26;;;;;;;;;;;;;;;14.62;100.00;98439.19;5078554;28;19925;-61
2022/05/07 06:51:52;;;;;;;;;;;;;;;14.69;100.00;98436.22;5079041;28;20024;-61
2022/05/07 06:54:18;;;;;;;;;;;;;;;14.79;100.00;98434.25;5081766;28;19925;-62
2022/05/07 06:56:45;;;;;;;;;;;;;;;14.87;100.00;98441.75;5081782;28;19936;-62
2022/05/07 06:59:11;;;;;;;;;;;;;;;15.00;100.00;98438.47;5078516;28;19925;-62
2022/05/07 07:01:37;;;;;;;;;;;;;;;15.04;100.00;98441.41;5078128;28;20537;-60
2022/05/07 07:04:05;;;;;;;;;;;;;;;15.15;100.00;98442.94;5080436;28;19993;-61
2022/05/07 07:06:32;;;;;;;;;;;;;;;15.14;100.00;98442.13;5081743;28;19930;-60
2022/05/07 07:08:58;;;;;;;;;;;;;;;15.20;100.00;98436.69;5080186;28;19959;-61
2022/05/07 07:11:25;;;;;;;;;;;;;;;15.34;100.00;98441.19;5078193;28;19927;-61
2022/05/07 07:13:51;;;;;;;;;;;;;;;15.40;100.00;98437.38;5080016;27;19925;-60
2022/05/07 07:16:18;;;;;;;;;;;;;;;15.46;100.00;98430.06;5081302;28;19980;-61
2022/05/07 07:18:44;;;;;;;;;;;;;;;15.59;100.00;98429.44;5081485;28;19943;-61
2022/05/07 07:21:12;;;;;;;;;;;;;;;15.61;100.00;98427.25;5078134;28;19963;-61
2022/05/07 07:23:38;;;;;;;;;;;;;;;15.72;100.00;98428.78;5078046;28;19932;-61
2022/05/07 07:26:05;;;;;;;;;;;;;;;15.65;100.00;98433.69;5080648;28;19956;-60
2022/05/07 07:28:31;;;;;;;;;;;;;;;15.66;100.00;98435.28;5081537;28;19932;-61
2022/05/07 07:30:58;;;;;;;;;;;;;;;15.78;100.00;98433.06;5080306;28;19920;-60
2022/05/07 07:33:24;;;;;;;;;;;;;;;15.60;100.00;98431.03;5078303;28;20577;-61
2022/05/07 07:35:51;;;;;;;;;;;;;;;15.57;100.00;98437.78;5078052;28;19988;-61
2022/05/07 07:38:18;;;;;;;;;;;;;;;15.59;100.00;98440.22;5080852;28;19920;-61
2022/05/07 07:40:49;;;;;;;;;;;;;;;15.59;100.00;98435.63;5081227;28;19924;-61
2022/05/07 07:43:16;;;;;;;;;;;;;;;15.75;100.00;98435.50;5071714;27;19932;-61
2022/05/07 07:48:26;;;;;;;;;;;;;;;15.85;100.00;98436.19;5071392;28;19925;-61
2022/05/07 07:50:53;;;;;;;;;;;;;;;15.96;100.00;98426.13;5078433;28;19925;-60
2022/05/07 07:53:22;;;;;;;;;;;;;;;16.18;100.00;98429.91;5081065;28;19942;-61
2022/05/07 07:55:49;;;;;;;;;;;;;;;16.29;100.00;98443.28;5081096;28;20790;-61
2022/05/07 07:58:15;;;;;;;;;;;;;;;16.32;100.00;98437.31;5077583;28;19925;-61
2022/05/07 08:00:44;;;;;;;;;;;;;;;16.29;100.00;98437.91;5077432;28;19968;-62
2022/05/07 08:03:11;;;;;;;;;;;;;;;16.27;100.00;98430.09;5080297;28;19928;-60
2022/05/07 08:05:37;;;;;;;;;;;;;;;16.38;100.00;98436.16;5081091;28;20631;-61
2022/05/07 08:13:34;;;;;;;;;;;;;;;16.56;100.00;98438.13;5084140;27;19946;-61
2022/05/07 08:16:01;;;;;;;;;;;;;;;16.69;100.00;98432.03;5079337;28;19988;-62
2022/05/07 08:18:28;;;;;;;;;;;;;;;16.66;100.00;98438.81;5080633;28;19935;-62
2022/05/07 08:20:55;;;;;;;;;;;;;;;16.77;100.00;98436.00;5079859;28;19925;-61
2022/05/07 08:23:21;;;;;;;;;;;;;;;16.81;100.00;98442.41;5077184;28;19925;-62
2022/05/07 08:25:48;;;;;;;;;;;;;;;16.84;100.00;98429.13;5077322;28;19920;-62
2022/05/07 08:28:16;;;;;;;;;;;;;;;16.87;100.00;98433.94;5068809;28;19924;-61
2022/05/07 08:30:42;;;;;;;;;;;;;;;17.05;100.00;98430.47;5077191;28;19956;-60
2022/05/07 08:33:08;;;;;;;;;;;;;;;17.20;100.00;98427.56;5079775;28;19959;-61
2022/05/07 08:35:35;;;;;;;;;;;;;;;17.39;100.00;98435.63;5080310;28;19944;-62
2022/05/07 08:38:01;;;;;;;;;;;;;;;17.47;100.00;98432.25;5078528;28;20589;-62
2022/05/07 08:40:28;;;;;;;;;;;;;;;17.56;100.00;98433.22;5076848;28;20036;-61
2022/05/07 08:42:55;;;;;;;;;;;;;;;17.64;100.00;98427.13;5086415;27;19932;-61
2022/05/07 08:45:24;;;;;;;;;;;;;;;17.65;100.00;98434.16;5076861;28;19924;-62
2022/05/07 08:47:53;;;;;;;;;;;;;;;17.55;100.00;98438.91;5076970;28;19943;-62
2022/05/07 08:50:19;;;;;;;;;;;;;;;17.63;100.00;98430.16;5079307;28;19924;-62
2022/05/07 08:52:46;;;;;;;;;;;;;;;17.78;100.00;98437.97;5080005;28;19952;-61
2022/05/07 08:55:13;;;;;;;;;;;;;;;17.90;100.00;98422.09;5076593;28;19943;-62
2022/05/07 08:57:40;;;;;;;;;;;;;;;17.85;100.00;98427.59;5076530;28;19992;-61
2022/05/07 09:00:07;;;;;;;;;;;;;;;17.89;100.00;98423.19;5079155;28;19925;-61
2022/05/07 09:02:41;;;;;;;;;;;;;;;17.82;100.00;98427.38;5079578;28;19925;-62
2022/05/07 09:05:08;;;;;;;;;;;;;;;17.80;100.00;98427.66;5077051;28;19921;-61
2022/05/07 09:07:35;;;;;;;;;;;;;;;17.65;100.00;98422.53;5076435;28;19924;-61
2022/05/07 09:10:01;;;;;;;;;;;;;;;17.54;100.00;98431.88;5078140;28;19994;-62
2022/05/07 09:12:29;;;;;;;;;;;;;;;17.48;100.00;98435.75;5081509;27;19925;-61
2022/05/07 09:15:00;;;;;;;;;;;;;;;17.51;100.00;98427.88;5061083;28;19939;-62
2022/05/07 09:17:26;;;;;;;;;;;;;;;17.61;100.00;98422.31;5076322;28;19924;-61
2022/05/07 09:19:54;;;;;;;;;;;;;;;17.94;100.00;98425.00;5076853;28;19925;-62
2022/05/07 09:22:20;;;;;;;;;;;;;;;18.01;100.00;98420.03;5079420;28;19996;-61
2022/05/07 09:24:53;;;;;;;;;;;;;;;18.08;100.00;98415.81;5079385;28;19925;-63
2022/05/07 09:27:19;;;;;;;;;;;;;;;18.07;100.00;98416.91;5068636;28;19925;-61
2022/05/07 09:29:45;;;;;;;;;;;;;;;18.05;100.00;98421.81;5076067;28;19929;-63
2022/05/07 09:32:13;;;;;;;;;;;;;;;17.99;100.00;98414.09;5079026;28;19984;-61
2022/05/07 09:37:35;;;;;;;;;;;;;;;17.84;100.00;98412.47;5069618;28;20024;-62
2022/05/07 09:40:05;;;;;;;;;;;;;;;18.04;100.00;98420.19;5077388;28;19968;-60
2022/05/07 09:42:33;;;;;;;;;;;;;;;18.06;100.00;98418.03;5080760;27;20599;-61
2022/05/07 09:45:01;;;;;;;;;;;;;;;18.11;100.00;98409.00;5077880;28;19963;-61
2022/05/07 09:47:27;;;;;;;;;;;;;;;18.24;100.00;98403.63;5075937;28;19946;-61
2022/05/07 09:58:15;;;;;;;;;;;;;;;18.21;100.00;98408.81;5113177;28;20659;-61
2022/05/07 10:00:49;;;;;;;;;;;;;;;18.32;100.00;98404.78;5075898;28;19925;-61
2022/05/07 10:03:20;;;;;;;;;;;;;;;18.22;100.00;98405.03;5071035;28;19952;-61
2022/05/07 10:06:00;;;;;;;;;;;;;;;18.26;100.00;98406.00;5079260;28;19993;-61
2022/05/07 10:08:38;;;;;;;;;;;;;;;18.24;100.00;98403.63;5072768;28;19925;-61
2022/05/07 10:11:05;;;;;;;;;;;;;;;18.33;100.00;98387.47;5081598;28;19932;-62
2022/05/07 10:13:32;;;;;;;;;;;;;;;18.33;100.00;98398.28;5086110;27;20019;-62
2022/05/07 10:16:00;;;;;;;;;;;;;;;18.27;100.00;98397.59;5080645;28;19925;-62
2022/05/07 10:18:34;;;;;;;;;;;;;;;18.33;100.00;98391.00;5082602;28;20015;-61
2022/05/07 10:21:10;;;;;;;;;;;;;;;18.29;100.00;98394.59;5080917;28;19980;-61
2022/05/07 10:23:48;;;;;;;;;;;;;;;18.35;100.00;98396.88;5078716;28;20019;-60
2022/05/07 10:26:14;;;;;;;;;;;;;;;18.25;100.00;98386.28;5070805;28;19924;-60
2022/05/07 10:28:42;;;;;;;;;;;;;;;18.32;100.00;98394.78;5078085;28;19988;-61
2022/05/07 10:31:16;;;;;;;;;;;;;;;18.35;100.00;98390.69;5079179;28;19949;-61
2022/05/07 10:33:42;;;;;;;;;;;;;;;18.38;100.00;98382.00;5079880;28;20009;-62
2022/05/07 10:36:09;;;;;;;;;;;;;;;18.51;100.00;98383.88;5076962;28;19998;-61
2022/05/07 10:38:37;;;;;;;;;;;;;;;18.36;100.00;98389.56;5076091;28;19925;-61
2022/05/07 10:41:06;;;;;;;;;;;;;;;18.35;100.00;98388.78;5078493;28;19984;-62
2022/05/07 10:43:34;;;;;;;;;;;;;;;18.29;100.00;98392.69;5083243;27;20369;-61
2022/05/07 10:46:02;;;;;;;;;;;;;;;18.38;100.00;98383.88;5077887;28;19924;-62
2022/05/07 10:48:28;;;;;;;;;;;;;;;18.51;100.00;98386.59;5079347;28;19996;-62
2022/05/07 10:50:55;;;;;;;;;;;;;;;18.54;100.00;98382.47;5078489;28;20327;-61
2022/05/07 10:53:22;;;;;;;;;;;;;;;18.60;100.00;98375.88;5075923;27;19992;-61
2022/05/07 10:55:51;;;;;;;;;;;;;;;18.58;100.00;98391.59;5075839;28;20000;-62
2022/05/07 10:58:27;;;;;;;;;;;;;;;18.46;100.00;98389.38;5080431;28;19920;-61
2022/05/07 11:00:56;;;;;;;;;;;;;;;18.51;100.00;98385.78;5080735;28;19921;-62
2022/05/07 11:03:25;;;;;;;;;;;;;;;18.40;100.00;98378.97;5077677;28;19952;-61
2022/05/07 11:05:51;;;;;;;;;;;;;;;18.40;100.00;98378.97;5078547;28;19928;-61
2022/05/07 11:08:17;;;;;;;;;;;;;;;18.45;100.00;98379.66;5081424;28;19952;-61
2022/05/07 11:10:44;;;;;;;;;;;;;;;18.44;100.00;98375.38;5081846;28;19992;-60
2022/05/07 11:13:12;;;;;;;;;;;;;;;18.52;100.00;98368.47;5080372;27;19935;-61
2022/05/07 11:15:41;;;;;;;;;;;;;;;18.45;100.00;98374.25;5078422;28;19925;-61
2022/05/07 11:18:14;;;;;;;;;;;;;;;18.56;100.00;98372.16;5080892;28;19946;-61
2022/05/07 11:20:41;;;;;;;;;;;;;;;18.52;100.00;98373.88;5081727;27;19928;-60
2022/05/07 11:23:07;;;;;;;;;;;;;;;18.58;100.00;98370.75;5078615;28;19932;-61
2022/05/07 11:25:34;;;;;;;;;;;;;;;18.42;100.00;98368.63;5077692;28;19988;-62
2022/05/07 11:28:01;;;;;;;;;;;;;;;18.41;100.00;98367.06;5079332;28;19963;-62
2022/05/07 11:30:27;;;;;;;;;;;;;;;18.44;100.00;98369.97;5081237;28;19955;-62
2022/05/07 11:32:55;;;;;;;;;;;;;;;18.49;100.00;98369.03;5080439;28;19928;-62
2022/05/07 11:35:24;;;;;;;;;;;;;;;18.41;100.00;98370.56;5077482;28;19964;-61
2022/05/07 11:37:50;;;;;;;;;;;;;;;18.61;100.00;98366.63;5077870;28;19931;-62
2022/05/07 11:40:28;;;;;;;;;;;;;;;18.66;100.00;98375.44;5080911;28;19991;-61
2022/05/07 11:45:25;;;;;;;;;;;;;;;18.45;100.00;98370.72;5082071;27;19920;-61
2022/05/07 11:45:41;;;;;;;;;;;;;;;18.33;100.00;98376.66;5077299;28;19924;-61
2022/05/07 11:48:14;;;;;;;;;;;;;;;18.32;100.00;98370.44;5080047;28;19921;-61
2022/05/07 11:50:51;;;;;;;;;;;;;;;18.43;100.00;98372.94;5080840;28;19924;-60
2022/05/07 11:53:17;;;;;;;;;;;;;;;18.29;100.00;98379.16;5069497;28;19993;-61
2022/05/07 11:55:45;;;;;;;;;;;;;;;18.17;100.00;98376.16;5077344;28;19984;-61
2022/05/07 11:58:12;;;;;;;;;;;;;;;18.19;100.00;98365.06;5080416;28;19928;-61
2022/05/07 12:00:41;;;;;;;;;;;;;;;18.25;100.00;98378.19;5080816;28;19931;-61
2022/05/07 12:03:09;;;;;;;;;;;;;;;18.29;100.00;98367.53;5077867;27;19992;-62
2022/05/07 12:05:39;;;;;;;;;;;;;;;18.33;100.00;98372.06;5077302;28;19946;-62
2022/05/07 12:08:12;;;;;;;;;;;;;;;18.22;100.00;98370.69;5079526;28;20499;-61
2022/05/07 12:10:38;;;;;;;;;;;;;;;18.21;100.00;98366.34;5080556;28;19924;-62
2022/05/07 12:13:05;;;;;;;;;;;;;;;18.52;100.00;98368.47;5080371;27;19931;-61
2022/05/07 12:18:16;;;;;;;;;;;;;;;18.58;100.00;98372.66;5069049;28;19932;-62
2022/05/07 12:20:42;;;;;;;;;;;;;;;18.57;100.00;98369.16;5077042;28;19920;-61
2022/05/07 12:31:22;;;;;;;;;;;;;;;18.56;100.00;98372.16;5069606;28;19925;-61
2022/05/07 12:33:49;;;;;;;;;;;;;;;18.49;100.00;98369.03;5076910;28;20296;-61
2022/05/07 12:36:16;;;;;;;;;;;;;;;18.43;100.00;98362.13;5068559;28;19935;-61
2022/05/07 12:38:43;;;;;;;;;;;;;;;18.49;100.00;98367.16;5076676;28;19920;-61
2022/05/07 12:41:09;;;;;;;;;;;;;;;18.57;100.00;98360.25;5079611;28;20005;-61
2022/05/07 12:43:35;;;;;;;;;;;;;;;18.75;100.00;98362.78;5083579;27;19988;-61
2022/05/07 12:46:02;;;;;;;;;;;;;;;18.60;100.00;98351.53;5078191;28;20015;-60
2022/05/07 12:48:28;;;;;;;;;;;;;;;18.51;100.00;98361.44;5079826;28;19934;-60
2022/05/07 12:50:56;;;;;;;;;;;;;;;18.61;100.00;98353.91;5078999;28;19958;-61
2022/05/07 12:53:22;;;;;;;;;;;;;;;18.77;100.00;98360.59;5076471;28;20003;-61
2022/05/07 12:55:48;;;;;;;;;;;;;;;18.73;100.00;98358.78;5075971;28;20070;-61
2022/05/07 12:58:15;;;;;;;;;;;;;;;18.58;100.00;98359.13;5067914;28;19984;-61
2022/05/07 13:00:41;;;;;;;;;;;;;;;18.63;100.00;98353.63;5076156;28;20328;-61
2022/05/07 13:03:08;;;;;;;;;;;;;;;18.91;100.00;98354.34;5078285;27;20024;-61
2022/05/07 13:05:35;;;;;;;;;;;;;;;18.75;100.00;98348.47;5078508;28;19925;-61
2022/05/07 13:08:04;;;;;;;;;;;;;;;18.90;100.00;98342.72;5077487;28;19948;-62
2022/05/07 13:10:30;;;;;;;;;;;;;;;18.95;100.00;98337.19;5076175;28;19928;-63
2022/05/07 13:12:57;;;;;;;;;;;;;;;18.80;100.00;98338.34;5086060;27;19935;-61
2022/05/07 13:15:23;;;;;;;;;;;;;;;18.74;100.00;98336.06;5076067;28;19924;-61
2022/05/07 13:17:49;;;;;;;;;;;;;;;18.90;100.00;98337.31;5075976;28;19992;-61
2022/05/07 13:20:16;;;;;;;;;;;;;;;18.76;100.00;98334.63;5079314;28;19988;-62
2022/05/07 13:22:42;;;;;;;;;;;;;;;18.92;100.00;98335.09;5079260;28;19959;-62
2022/05/07 13:25:10;;;;;;;;;;;;;;;18.82;100.00;98341.53;5076460;28;19955;-61